Time;durP1;ratioP1;P1;durP2;ratioP2;P2;SDS_P1;SDS_P2;PMS_P1;PMS_P2;Temp;Humidity;BMP_temperature;BMP_pressure;BME280_temperature;BME280_humidity;BME280_pressure;Samples;Min_cycle;Max_cycle;Signal;HPM_P1;HPM_P2
2023/11/05 00:01:27;;;;;;;5.03;2.60;;;7.20;99.90;;;;;;2603328;54;20060;31
2023/11/05 00:04:02;;;;;;;8.65;3.05;;;7.20;99.90;;;;;;2603147;54;20032;31
2023/11/05 00:06:38;;;;;;;5.70;2.93;;;7.20;99.90;;;;;;2603220;54;20101;31
2023/11/05 00:09:13;;;;;;;5.80;2.70;;;7.20;99.90;;;;;;2603194;54;20120;31
2023/11/05 00:11:47;;;;;;;5.93;3.10;;;7.20;99.90;;;;;;2621561;46;20034;31
2023/11/05 00:14:21;;;;;;;9.90;3.38;;;7.20;99.90;;;;;;2603283;54;20326;31
2023/11/05 00:16:58;;;;;;;5.23;3.30;;;7.20;99.90;;;;;;2603168;54;19946;31
2023/11/05 00:19:32;;;;;;;6.00;2.75;;;7.20;99.90;;;;;;2602890;54;20251;31
2023/11/05 00:22:04;;;;;;;5.80;3.30;;;7.20;99.90;;;;;;2791542;31;21265;31
2023/11/05 00:24:38;;;;;;;7.47;3.50;;;7.20;99.90;;;;;;2603248;54;20039;31
2023/11/05 00:27:15;;;;;;;6.30;2.72;;;7.20;99.90;;;;;;2621398;46;20893;31
2023/11/05 00:29:49;;;;;;;3.40;2.25;;;7.20;99.90;;;;;;2702005;39;20509;31
2023/11/05 00:32:27;;;;;;;7.50;3.27;;;7.20;99.90;;;;;;2602988;54;20684;31
2023/11/05 00:35:01;;;;;;;4.35;2.30;;;7.30;99.90;;;;;;2603316;54;20746;31
2023/11/05 00:37:37;;;;;;;7.32;3.13;;;7.30;99.90;;;;;;2603224;54;20046;31
2023/11/05 00:40:12;;;;;;;7.95;2.65;;;7.30;99.90;;;;;;2621800;46;20030;31
2023/11/05 00:42:46;;;;;;;6.57;2.83;;;7.30;99.90;;;;;;2602863;54;20950;31
2023/11/05 00:45:21;;;;;;;4.85;2.60;;;7.30;99.90;;;;;;2603350;54;20967;31
2023/11/05 00:47:58;;;;;;;6.40;2.55;;;7.30;99.90;;;;;;2603140;54;20906;31
2023/11/05 00:50:35;;;;;;;5.82;2.70;;;7.30;99.90;;;;;;2603015;54;20916;31
2023/11/05 00:53:09;;;;;;;4.88;2.53;;;7.30;99.90;;;;;;2603147;54;20089;31
2023/11/05 00:55:43;;;;;;;4.45;2.30;;;7.30;99.90;;;;;;2621313;46;20905;31
2023/11/05 00:58:18;;;;;;;3.65;1.80;;;7.40;99.90;;;;;;2602982;54;20844;31
2023/11/05 01:00:53;;;;;;;6.10;2.42;;;7.40;99.90;;;;;;2603119;54;20033;31
2023/11/05 01:03:31;;;;;;;3.87;2.00;;;7.40;99.90;;;;;;2603009;54;20030;31
2023/11/05 01:06:06;;;;;;;4.78;2.20;;;7.50;99.90;;;;;;2621382;46;20899;31
2023/11/05 01:08:40;;;;;;;5.70;2.40;;;7.50;99.90;;;;;;2603052;54;20878;31
2023/11/05 01:11:14;;;;;;;6.35;1.80;;;7.50;99.90;;;;;;2603035;54;20022;31
2023/11/05 01:13:48;;;;;;;3.60;1.70;;;7.60;99.90;;;;;;2603161;54;20038;31
2023/11/05 01:16:23;;;;;;;4.10;2.00;;;7.60;99.90;;;;;;2603185;54;20580;31
2023/11/05 01:19:00;;;;;;;5.70;2.15;;;7.60;99.90;;;;;;2602804;54;19935;31
2023/11/05 01:21:35;;;;;;;4.03;1.75;;;7.70;99.90;;;;;;2603077;54;20917;31
2023/11/05 01:24:12;;;;;;;6.40;2.10;;;7.70;99.90;;;;;;2603031;54;20029;31
2023/11/05 01:26:47;;;;;;;9.15;1.85;;;7.70;99.90;;;;;;2602813;54;25017;31
2023/11/05 01:29:22;;;;;;;4.25;1.90;;;7.80;99.90;;;;;;2602985;54;20874;31
2023/11/05 01:31:57;;;;;;;2.65;1.75;;;7.80;99.90;;;;;;2603024;54;20038;31
2023/11/05 01:34:34;;;;;;;3.78;1.95;;;7.80;99.90;;;;;;2602867;54;20873;31
2023/11/05 01:37:08;;;;;;;5.13;1.83;;;7.90;99.90;;;;;;2602887;54;20112;31
2023/11/05 01:39:42;;;;;;;4.43;1.45;;;7.90;99.90;;;;;;2602875;54;21038;31
2023/11/05 01:42:17;;;;;;;3.15;1.50;;;7.90;99.90;;;;;;2602737;54;20034;31
2023/11/05 01:44:51;;;;;;;3.70;1.80;;;7.90;99.90;;;;;;2603059;54;20022;31
2023/11/05 01:47:26;;;;;;;4.25;1.63;;;8.00;99.90;;;;;;2602837;54;20920;31
2023/11/05 01:50:03;;;;;;;3.03;1.52;;;8.00;99.90;;;;;;2602877;54;20869;31
2023/11/05 01:52:39;;;;;;;4.00;1.65;;;8.00;99.90;;;;;;2602800;54;20081;31
2023/11/05 01:55:13;;;;;;;3.37;1.50;;;8.00;99.90;;;;;;2603323;54;20030;31
2023/11/05 01:57:48;;;;;;;2.85;1.35;;;8.00;99.90;;;;;;2603683;54;21668;31
2023/11/05 02:00:23;;;;;;;3.20;1.50;;;8.00;99.90;;;;;;2603785;54;20899;31
2023/11/05 02:02:57;;;;;;;3.53;1.73;;;8.00;99.90;;;;;;2603526;54;20026;31
2023/11/05 02:05:34;;;;;;;6.95;1.55;;;8.10;99.90;;;;;;2603516;54;20033;31
2023/11/05 02:08:10;;;;;;;3.80;1.20;;;8.20;99.90;;;;;;2603861;54;20035;31
2023/11/05 02:10:44;;;;;;;4.68;1.38;;;8.20;99.90;;;;;;2603554;54;20038;31
2023/11/05 02:13:20;;;;;;;3.65;1.00;;;8.20;99.90;;;;;;2603675;54;20932;31
2023/11/05 02:15:54;;;;;;;4.60;1.30;;;8.20;99.90;;;;;;2622643;46;20023;31
2023/11/05 02:18:28;;;;;;;4.93;1.65;;;8.30;99.90;;;;;;2603673;54;20120;31
2023/11/05 02:21:07;;;;;;;4.28;1.42;;;8.20;99.90;;;;;;2702118;39;20485;31
2023/11/05 02:23:44;;;;;;;3.88;1.30;;;8.20;99.90;;;;;;2621904;46;20928;31
2023/11/05 02:26:21;;;;;;;2.70;1.05;;;8.30;99.90;;;;;;2603552;54;20077;31
2023/11/05 02:28:55;;;;;;;3.55;1.35;;;8.30;99.90;;;;;;2603555;54;20908;31
2023/11/05 02:31:29;;;;;;;2.60;1.10;;;8.30;99.90;;;;;;2603527;54;20085;31
2023/11/05 02:34:03;;;;;;;3.08;1.20;;;8.30;99.90;;;;;;2603684;54;20030;31
2023/11/05 02:36:38;;;;;;;2.40;1.30;;;8.30;99.90;;;;;;2603826;54;20031;31
2023/11/05 02:39:16;;;;;;;2.30;0.90;;;8.30;99.90;;;;;;2603532;54;20133;31
2023/11/05 02:41:52;;;;;;;2.90;1.25;;;8.30;99.90;;;;;;2603582;54;21690;31
2023/11/05 02:44:26;;;;;;;4.20;1.00;;;8.30;99.90;;;;;;2603500;54;20104;31
2023/11/05 02:47:00;;;;;;;4.23;1.43;;;8.30;99.90;;;;;;2603662;54;20037;31
2023/11/05 02:49:34;;;;;;;3.85;1.05;;;8.30;99.90;;;;;;2603495;54;20037;31
2023/11/05 02:52:09;;;;;;;2.00;0.82;;;8.40;99.90;;;;;;2603459;54;20060;31
2023/11/05 02:54:46;;;;;;;1.60;0.95;;;8.40;99.90;;;;;;2603459;54;20035;31
2023/11/05 02:57:20;;;;;;;2.63;0.83;;;8.40;99.90;;;;;;2603702;54;20027;31
2023/11/05 02:59:55;;;;;;;2.10;1.00;;;8.50;99.90;;;;;;2603539;54;20723;31
2023/11/05 03:02:29;;;;;;;2.60;1.05;;;8.50;99.90;;;;;;2603429;54;20966;31
2023/11/05 03:05:04;;;;;;;2.97;0.70;;;8.50;99.90;;;;;;2621712;46;20033;31
2023/11/05 03:07:38;;;;;;;2.40;0.95;;;8.60;99.90;;;;;;2603520;54;20801;31
2023/11/05 03:10:16;;;;;;;2.72;0.95;;;8.60;99.90;;;;;;2603315;54;20908;31
2023/11/05 03:12:50;;;;;;;2.60;1.02;;;8.60;99.90;;;;;;2603610;54;20033;31
2023/11/05 03:15:24;;;;;;;1.70;0.90;;;8.60;99.90;;;;;;2603555;54;20785;31
2023/11/05 03:17:58;;;;;;;2.45;0.90;;;8.60;99.90;;;;;;2603412;54;20942;31
2023/11/05 03:20:33;;;;;;;1.80;0.98;;;8.60;99.90;;;;;;2621608;46;20049;31
2023/11/05 03:23:08;;;;;;;1.60;0.70;;;8.60;99.90;;;;;;2603473;54;20085;31
2023/11/05 03:25:45;;;;;;;2.30;0.90;;;8.70;99.90;;;;;;2603361;54;20906;31
2023/11/05 03:28:19;;;;;;;2.22;0.90;;;8.60;99.90;;;;;;2603207;54;20027;31
2023/11/05 03:30:55;;;;;;;1.80;1.00;;;8.70;99.90;;;;;;2603263;54;20025;31
2023/11/05 03:33:29;;;;;;;3.50;0.88;;;8.70;99.90;;;;;;2603332;54;20099;31
2023/11/05 03:36:03;;;;;;;2.08;1.05;;;8.70;99.90;;;;;;2603397;54;20033;31
2023/11/05 03:38:39;;;;;;;5.70;1.25;;;8.70;99.90;;;;;;2603571;54;19935;31
2023/11/05 03:41:16;;;;;;;;;;;8.70;99.90;;;;;;2603807;54;20112;31
2023/11/05 03:43:50;;;;;;;2.28;1.10;;;8.60;99.90;;;;;;2603451;54;20803;31
2023/11/05 03:46:24;;;;;;;5.20;1.60;;;8.60;99.90;;;;;;2603488;54;20030;31
2023/11/05 03:48:59;;;;;;;2.40;1.30;;;8.50;99.90;;;;;;2622072;46;21062;31
2023/11/05 03:51:33;;;;;;;5.40;1.38;;;8.50;99.90;;;;;;2603450;54;20062;31
2023/11/05 03:54:08;;;;;;;2.55;1.40;;;8.50;99.90;;;;;;2603064;54;20089;31
2023/11/05 03:56:45;;;;;;;1.20;0.80;;;8.50;99.90;;;;;;2603180;54;20915;31
2023/11/05 03:59:19;;;;;;;2.10;1.05;;;8.50;99.90;;;;;;2622047;46;20785;31
2023/11/05 04:01:53;;;;;;;2.97;1.30;;;8.50;99.90;;;;;;2603319;54;20052;31
2023/11/05 04:04:27;;;;;;;2.03;0.98;;;8.40;99.90;;;;;;2603425;54;20843;31
2023/11/05 04:07:04;;;;;;;1.70;1.00;;;8.40;99.90;;;;;;2603332;54;20031;31
2023/11/05 04:09:40;;;;;;;2.45;1.10;;;8.30;99.90;;;;;;2603413;54;20913;31
2023/11/05 04:12:17;;;;;;;2.15;1.00;;;8.40;99.90;;;;;;2603226;54;20042;31
2023/11/05 04:14:51;;;;;;;1.87;1.10;;;8.40;99.90;;;;;;2603226;54;20037;31
2023/11/05 04:17:25;;;;;;;1.75;0.80;;;8.40;99.90;;;;;;2622013;46;20892;31
2023/11/05 04:19:59;;;;;;;2.05;1.38;;;8.50;99.90;;;;;;2603355;54;20031;31
2023/11/05 04:22:35;;;;;;;2.73;0.90;;;8.50;99.90;;;;;;2603129;54;20096;31
2023/11/05 04:25:10;;;;;;;2.20;0.70;;;8.60;99.90;;;;;;2603384;54;20246;31
2023/11/05 04:27:47;;;;;;;1.50;0.90;;;8.60;99.90;;;;;;2603343;54;20068;31
2023/11/05 04:30:22;;;;;;;3.20;0.95;;;8.70;99.90;;;;;;2603357;54;20970;31
2023/11/05 04:32:56;;;;;;;1.40;0.90;;;8.70;99.90;;;;;;2603265;54;20850;31
2023/11/05 04:35:31;;;;;;;1.75;0.82;;;8.80;99.90;;;;;;2621902;46;20038;31
2023/11/05 04:38:05;;;;;;;1.80;0.80;;;8.80;99.90;;;;;;2603310;54;20030;31
2023/11/05 04:40:39;;;;;;;1.85;1.00;;;8.90;99.90;;;;;;2603026;54;20027;31
2023/11/05 04:43:17;;;;;;;4.30;1.20;;;8.90;99.90;;;;;;2603146;54;20033;31
2023/11/05 04:45:52;;;;;;;2.50;0.75;;;9.00;99.90;;;;;;2622092;46;20807;31
2023/11/05 04:48:26;;;;;;;1.73;0.90;;;9.00;99.90;;;;;;2603270;54;20077;31
2023/11/05 04:51:02;;;;;;;1.85;0.85;;;9.00;99.90;;;;;;2621392;46;20927;31
2023/11/05 04:53:36;;;;;;;1.40;1.10;;;9.10;99.90;;;;;;2603067;54;20826;31
2023/11/05 04:56:10;;;;;;;2.75;1.05;;;9.00;99.90;;;;;;2603143;54;20815;31
2023/11/05 04:58:47;;;;;;;2.30;0.90;;;9.10;99.90;;;;;;2602846;54;20029;31
2023/11/05 05:01:21;;;;;;;2.58;0.95;;;9.10;99.90;;;;;;2603048;54;20889;31
2023/11/05 05:03:55;;;;;;;1.33;0.77;;;9.10;99.90;;;;;;2602990;54;20101;31
2023/11/05 05:06:30;;;;;;;2.88;1.20;;;9.10;99.90;;;;;;2603235;54;21040;31
2023/11/05 05:09:06;;;;;;;1.60;0.73;;;9.20;99.90;;;;;;2603051;54;20022;31
2023/11/05 05:11:41;;;;;;;2.47;0.90;;;9.20;99.90;;;;;;2603066;54;19957;31
2023/11/05 05:14:18;;;;;;;1.55;0.80;;;9.30;99.90;;;;;;2602992;54;20951;31
2023/11/05 05:16:53;;;;;;;2.30;0.90;;;9.30;99.90;;;;;;2621217;47;20909;31
2023/11/05 05:19:27;;;;;;;1.05;0.70;;;9.30;99.90;;;;;;2603140;54;20042;31
2023/11/05 05:22:02;;;;;;;1.42;0.73;;;9.30;99.90;;;;;;2621786;47;19935;31
2023/11/05 05:24:36;;;;;;;1.90;0.93;;;9.30;99.90;;;;;;2602811;54;20073;31
2023/11/05 05:27:11;;;;;;;1.55;0.80;;;9.30;99.90;;;;;;2621477;47;20026;31
2023/11/05 05:29:48;;;;;;;3.20;0.90;;;9.30;99.90;;;;;;2603287;54;20109;31
2023/11/05 05:32:22;;;;;;;1.30;0.70;;;9.30;99.90;;;;;;2622033;46;20896;31
2023/11/05 05:34:56;;;;;;;2.85;0.85;;;9.30;99.90;;;;;;2603993;54;20895;31
2023/11/05 05:37:30;;;;;;;1.30;0.80;;;9.30;99.90;;;;;;2603947;54;20085;31
2023/11/05 05:40:04;;;;;;;1.48;0.77;;;9.30;99.90;;;;;;2603892;54;20904;31
2023/11/05 05:42:40;;;;;;;2.13;0.83;;;9.30;99.90;;;;;;2603628;54;20840;31
2023/11/05 05:45:17;;;;;;;2.33;1.07;;;9.30;99.90;;;;;;2603331;54;20934;31
2023/11/05 05:47:51;;;;;;;1.97;0.90;;;9.30;99.90;;;;;;2603680;54;20900;31
2023/11/05 05:50:26;;;;;;;4.18;1.00;;;9.40;99.90;;;;;;2603778;54;20046;31
2023/11/05 05:53:00;;;;;;;1.30;0.82;;;9.40;99.90;;;;;;2603652;54;20031;31
2023/11/05 05:55:35;;;;;;;2.05;0.90;;;9.40;99.90;;;;;;2773740;31;20642;31
2023/11/05 05:58:10;;;;;;;2.85;0.82;;;9.30;99.90;;;;;;2622469;46;20038;31
2023/11/05 06:00:47;;;;;;;1.87;0.70;;;9.40;99.90;;;;;;2603911;54;20022;31
2023/11/05 06:03:21;;;;;;;1.42;0.65;;;9.30;99.90;;;;;;2603494;54;20037;31
2023/11/05 06:05:55;;;;;;;1.92;0.88;;;9.30;99.90;;;;;;2603821;54;20053;31
2023/11/05 06:08:29;;;;;;;1.83;0.88;;;9.30;99.90;;;;;;2622241;46;20030;31
2023/11/05 06:11:03;;;;;;;1.35;0.70;;;9.30;99.90;;;;;;2603646;54;20037;31
2023/11/05 06:13:37;;;;;;;2.85;0.73;;;9.30;99.90;;;;;;2603705;54;20975;31
2023/11/05 06:16:15;;;;;;;3.80;0.80;;;9.30;99.90;;;;;;2622482;46;20818;31
2023/11/05 06:18:49;;;;;;;3.23;0.80;;;9.30;99.90;;;;;;2720499;39;20485;31
2023/11/05 06:21:25;;;;;;;2.50;1.00;;;9.30;99.90;;;;;;2603832;54;19989;31
2023/11/05 06:24:00;;;;;;;1.80;0.90;;;9.30;99.90;;;;;;2603503;54;20683;31
2023/11/05 06:26:36;;;;;;;2.60;0.85;;;9.30;99.90;;;;;;2603439;54;21178;31
2023/11/05 06:29:11;;;;;;;0.93;0.70;;;9.30;99.90;;;;;;2622255;46;20896;31
2023/11/05 06:31:48;;;;;;;2.53;1.00;;;9.30;99.90;;;;;;2603423;54;20030;31
2023/11/05 06:34:23;;;;;;;4.67;1.00;;;9.40;99.90;;;;;;2622129;46;20081;31
2023/11/05 06:36:58;;;;;;;3.00;1.05;;;9.40;99.90;;;;;;2603699;54;20569;31
2023/11/05 06:39:33;;;;;;;2.20;0.90;;;9.40;99.90;;;;;;2603397;54;20951;31
2023/11/05 06:42:09;;;;;;;2.80;1.10;;;9.40;99.90;;;;;;2603281;54;20827;31
2023/11/05 06:44:45;;;;;;;;;;;9.50;99.90;;;;;;2603736;54;20847;31
2023/11/05 06:47:23;;;;;;;2.15;0.80;;;9.50;99.90;;;;;;2621916;46;19993;31
2023/11/05 06:49:57;;;;;;;1.35;0.70;;;9.50;99.90;;;;;;2603404;54;20826;31
2023/11/05 06:52:32;;;;;;;3.10;0.80;;;9.60;99.90;;;;;;2603709;54;20085;31
2023/11/05 06:55:10;;;;;;;2.85;0.60;;;9.60;99.90;;;;;;2603588;54;20919;31
2023/11/05 06:57:45;;;;;;;1.20;0.80;;;9.60;99.90;;;;;;2603711;54;20109;31
2023/11/05 07:00:21;;;;;;;2.63;0.70;;;9.70;99.90;;;;;;2603576;54;20679;31
2023/11/05 07:02:58;;;;;;;1.30;0.70;;;9.70;99.90;;;;;;2603394;54;20034;31
2023/11/05 07:05:32;;;;;;;1.00;0.47;;;9.70;99.90;;;;;;2603295;54;20768;31
2023/11/05 07:08:08;;;;;;;2.05;0.50;;;9.80;99.90;;;;;;2603490;54;20026;31
2023/11/05 07:10:44;;;;;;;7.90;0.60;;;9.90;99.90;;;;;;2603660;54;20022;31
2023/11/05 07:13:23;;;;;;;1.85;0.70;;;9.90;99.90;;;;;;2603614;54;20727;31
2023/11/05 07:15:58;;;;;;;1.40;0.60;;;10.00;99.90;;;;;;2603430;54;20807;31
2023/11/05 07:18:37;;;;;;;0.57;0.30;;;10.00;99.90;;;;;;2603546;54;20576;31
2023/11/05 07:21:14;;;;;;;1.35;0.50;;;10.00;99.90;;;;;;2603292;54;20136;31
2023/11/05 07:23:50;;;;;;;2.10;1.02;;;10.00;99.90;;;;;;2603642;54;20575;31
2023/11/05 07:26:25;;;;;;;2.67;0.60;;;10.10;99.90;;;;;;2621828;46;20032;31
2023/11/05 07:29:03;;;;;;;3.20;0.70;;;10.10;99.50;;;;;;2603353;54;20022;31
2023/11/05 07:31:38;;;;;;;2.30;0.60;;;10.20;99.90;;;;;;2603388;54;21205;31
2023/11/05 07:34:16;;;;;;;1.73;0.57;;;10.20;99.90;;;;;;2621600;46;20089;31
2023/11/05 07:36:52;;;;;;;2.45;0.60;;;10.20;99.40;;;;;;2621918;46;20919;31
2023/11/05 07:39:33;;;;;;;3.85;0.70;;;10.30;98.60;;;;;;2603315;54;20029;31
2023/11/05 07:42:11;;;;;;;1.75;0.70;;;10.30;97.00;;;;;;2621704;46;20086;31
2023/11/05 07:44:48;;;;;;;2.22;0.65;;;10.30;96.50;;;;;;2602311;54;20125;31
2023/11/05 07:47:23;;;;;;;2.15;0.60;;;10.40;97.30;;;;;;2603358;54;20924;31
2023/11/05 07:50:03;;;;;;;1.85;0.50;;;10.40;96.70;;;;;;2603373;54;21415;31
2023/11/05 07:52:40;;;;;;;1.60;0.60;;;10.40;95.20;;;;;;2701949;39;20429;31
2023/11/05 07:55:16;;;;;;;1.02;0.50;;;10.40;94.50;;;;;;2702145;39;20449;31
2023/11/05 07:57:52;;;;;;;1.00;0.50;;;10.50;94.70;;;;;;2622116;46;20038;31
2023/11/05 08:00:29;;;;;;;0.60;0.20;;;10.50;93.70;;;;;;2621853;46;20121;31
2023/11/05 08:03:06;;;;;;;1.23;0.50;;;10.50;94.30;;;;;;2603260;54;20026;31
2023/11/05 08:05:45;;;;;;;1.30;0.40;;;10.60;94.30;;;;;;2603328;54;20924;31
2023/11/05 08:08:20;;;;;;;1.35;0.50;;;10.60;93.70;;;;;;2603272;54;20022;31
2023/11/05 08:10:56;;;;;;;1.83;0.47;;;10.60;93.20;;;;;;2603361;54;20054;31
2023/11/05 08:13:32;;;;;;;1.23;0.40;;;10.60;94.40;;;;;;2603296;54;20077;31
2023/11/05 08:16:08;;;;;;;1.20;0.60;;;10.60;93.60;;;;;;2603416;54;19942;31
2023/11/05 08:18:44;;;;;;;1.90;0.50;;;10.60;93.90;;;;;;2603149;54;20108;31
2023/11/05 08:21:24;;;;;;;5.05;0.70;;;10.70;94.80;;;;;;2603112;54;20027;31
2023/11/05 08:23:59;;;;;;;1.15;0.60;;;10.70;93.90;;;;;;2603269;54;20680;31
2023/11/05 08:26:36;;;;;;;3.40;1.17;;;10.70;95.00;;;;;;2621736;46;20030;31
2023/11/05 08:29:14;;;;;;;1.60;0.80;;;10.80;94.50;;;;;;2621944;46;20057;31
2023/11/05 08:31:50;;;;;;;6.43;0.60;;;10.80;93.90;;;;;;2603285;54;20068;31
2023/11/05 08:34:26;;;;;;;1.50;0.65;;;10.90;94.10;;;;;;2603358;54;20882;31
2023/11/05 08:37:03;;;;;;;;;;;10.90;94.20;;;;;;2603597;54;20026;31
2023/11/05 08:39:40;;;;;;;2.58;0.68;;;10.90;95.50;;;;;;2603157;54;20025;31
2023/11/05 08:42:16;;;;;;;1.40;0.50;;;11.00;95.00;;;;;;2701630;39;21646;31
2023/11/05 08:44:52;;;;;;;1.00;0.70;;;11.10;93.70;;;;;;2621808;46;20042;31
2023/11/05 08:47:27;;;;;;;1.75;0.80;;;11.20;94.60;;;;;;2603151;54;20917;31
2023/11/05 08:50:03;;;;;;;1.90;0.50;;;11.20;93.30;;;;;;2603414;54;20027;31
2023/11/05 08:52:41;;;;;;;1.40;0.45;;;11.30;93.70;;;;;;2603270;54;20113;31
2023/11/05 08:55:16;;;;;;;1.70;0.50;;;11.40;90.00;;;;;;2621719;46;20081;31
2023/11/05 08:57:51;;;;;;;1.50;0.50;;;11.50;90.10;;;;;;2603112;54;20030;31
2023/11/05 09:00:28;;;;;;;0.77;0.50;;;11.60;90.30;;;;;;2603123;54;20773;31
2023/11/05 09:03:04;;;;;;;2.10;0.50;;;11.60;87.80;;;;;;2621447;46;20172;31
2023/11/05 09:05:40;;;;;;;2.72;0.60;;;11.70;90.70;;;;;;2602915;54;20045;31
2023/11/05 09:08:18;;;;;;;1.05;0.65;;;11.70;86.80;;;;;;2603265;54;20108;31
2023/11/05 09:10:53;;;;;;;1.55;0.50;;;11.80;89.30;;;;;;2602955;54;20097;31
2023/11/05 09:13:29;;;;;;;1.38;0.60;;;11.80;86.70;;;;;;2602968;54;20030;31
2023/11/05 09:16:06;;;;;;;5.72;0.85;;;11.90;86.30;;;;;;2602919;54;20026;31
2023/11/05 09:18:42;;;;;;;2.17;0.47;;;12.00;86.90;;;;;;2621189;47;20039;31
2023/11/05 09:21:18;;;;;;;1.25;0.75;;;12.00;82.40;;;;;;2603231;54;20993;31
2023/11/05 09:26:33;;;;;;;1.50;0.70;;;12.10;84.70;;;;;;2621090;47;19935;31
2023/11/05 09:29:10;;;;;;;1.80;1.00;;;12.10;85.30;;;;;;2621498;47;20033;31
2023/11/05 09:31:47;;;;;;;2.50;0.80;;;12.10;85.80;;;;;;2610215;47;20933;31
2023/11/05 09:34:23;;;;;;;2.75;1.02;;;12.20;85.40;;;;;;2621077;47;20035;31
2023/11/05 09:36:58;;;;;;;1.63;0.70;;;12.20;84.70;;;;;;2621486;47;20037;31
2023/11/05 09:39:34;;;;;;;2.17;0.98;;;12.20;85.60;;;;;;2603006;54;20820;31
2023/11/05 09:42:13;;;;;;;2.15;1.13;;;12.20;85.60;;;;;;2603325;54;20026;31
2023/11/05 09:44:48;;;;;;;1.52;0.77;;;12.30;88.90;;;;;;2602737;54;20030;31
2023/11/05 09:47:25;;;;;;;1.98;0.90;;;12.30;84.50;;;;;;2618966;47;20936;31
2023/11/05 09:50:01;;;;;;;2.67;0.73;;;12.30;83.50;;;;;;2621559;47;20046;31
2023/11/05 09:52:40;;;;;;;3.25;0.80;;;12.30;77.30;;;;;;2602861;54;20984;31
2023/11/05 09:55:16;;;;;;;4.85;0.55;;;12.30;78.70;;;;;;2620902;47;20089;31
2023/11/05 09:57:53;;;;;;;1.13;0.55;;;12.40;76.50;;;;;;2602691;54;20059;31
2023/11/05 10:00:30;;;;;;;1.58;0.52;;;12.40;82.90;;;;;;2602965;54;20026;31
2023/11/05 10:03:07;;;;;;;1.50;0.70;;;12.40;77.40;;;;;;2603071;54;20149;31
2023/11/05 10:05:42;;;;;;;1.92;0.65;;;12.50;77.30;;;;;;2602831;54;20866;31
2023/11/05 10:08:17;;;;;;;2.70;0.60;;;12.60;75.50;;;;;;2602837;54;20022;31
2023/11/05 10:10:53;;;;;;;1.42;0.40;;;12.60;74.50;;;;;;2602817;54;20034;31
2023/11/05 10:13:32;;;;;;;2.08;0.80;;;12.60;74.80;;;;;;2602662;54;20962;31
2023/11/05 10:16:09;;;;;;;1.65;0.75;;;12.70;74.00;;;;;;2603125;54;20034;31
2023/11/05 10:18:45;;;;;;;1.40;0.40;;;12.70;73.70;;;;;;2603756;54;20033;31
2023/11/05 10:21:19;;;;;;;;;;;12.70;73.20;;;;;;2603887;54;20811;31
2023/11/05 10:23:56;;;;;;;2.20;0.80;;;12.90;74.10;;;;;;2603902;54;20758;31
2023/11/05 10:26:31;;;;;;;1.52;0.65;;;12.90;69.50;;;;;;2603426;54;21095;31
2023/11/05 10:29:08;;;;;;;1.10;0.70;;;13.00;68.00;;;;;;2702004;39;20474;31
2023/11/05 10:31:44;;;;;;;2.90;0.80;;;13.00;71.10;;;;;;2622224;46;20116;31
2023/11/05 10:34:19;;;;;;;2.30;0.70;;;13.00;69.20;;;;;;2603498;54;20919;31
2023/11/05 10:36:55;;;;;;;1.60;0.60;;;13.10;69.70;;;;;;2603336;54;20912;31
2023/11/05 10:39:30;;;;;;;2.35;0.63;;;13.10;72.00;;;;;;2603622;54;20058;31
2023/11/05 10:42:05;;;;;;;1.73;0.82;;;13.20;73.10;;;;;;2603694;54;20120;31
2023/11/05 10:44:42;;;;;;;2.17;0.85;;;13.10;70.00;;;;;;2622282;46;20906;31
2023/11/05 10:47:17;;;;;;;4.55;0.80;;;13.20;68.00;;;;;;2603686;54;20034;31
2023/11/05 10:49:57;;;;;;;1.65;0.70;;;13.20;70.00;;;;;;2603564;54;20112;31
2023/11/05 10:52:32;;;;;;;1.63;0.70;;;13.20;71.80;;;;;;2603744;54;20026;31
2023/11/05 10:55:08;;;;;;;1.57;0.90;;;13.30;71.20;;;;;;2621976;46;20503;31
2023/11/05 10:57:43;;;;;;;1.45;0.70;;;13.30;68.10;;;;;;2603584;54;20289;31
2023/11/05 11:00:47;;;;;;;3.42;0.65;;;13.40;68.20;;;;;;2603563;54;20978;31
2023/11/05 11:03:21;;;;;;;2.47;0.98;;;13.40;66.60;;;;;;2603346;54;20041;31
2023/11/05 11:06:02;;;;;;;1.70;0.87;;;13.50;65.50;;;;;;2621984;46;20030;31
2023/11/05 11:08:37;;;;;;;2.55;0.80;;;13.50;65.60;;;;;;2603281;54;21237;31
2023/11/05 11:11:19;;;;;;;1.27;0.77;;;13.50;65.90;;;;;;2603414;54;20037;31
2023/11/05 11:13:57;;;;;;;1.83;0.80;;;13.50;66.30;;;;;;2603668;54;20042;31
2023/11/05 11:16:33;;;;;;;2.50;0.70;;;13.50;61.90;;;;;;2603372;54;20876;31
2023/11/05 11:19:12;;;;;;;2.70;0.80;;;13.50;64.70;;;;;;2702008;39;20533;31
2023/11/05 11:21:53;;;;;;;2.78;0.70;;;13.50;62.80;;;;;;2603557;54;20029;31
2023/11/05 11:24:36;;;;;;;2.05;0.90;;;13.40;65.00;;;;;;2603641;54;20608;31
2023/11/05 11:27:11;;;;;;;2.22;1.05;;;13.50;75.40;;;;;;2621574;46;20101;31
2023/11/05 11:29:48;;;;;;;3.57;1.13;;;13.40;68.80;;;;;;2603575;54;20214;31
2023/11/05 11:32:24;;;;;;;2.28;0.98;;;13.40;75.10;;;;;;2603660;54;20079;31
2023/11/05 11:35:02;;;;;;;2.45;1.15;;;13.40;73.70;;;;;;2603630;54;20894;31
2023/11/05 11:37:39;;;;;;;3.75;1.55;;;13.40;74.60;;;;;;2701805;39;20511;31
2023/11/05 11:40:20;;;;;;;5.32;0.82;;;13.40;72.00;;;;;;2603440;54;20916;31
2023/11/05 11:42:56;;;;;;;2.92;1.17;;;13.30;71.60;;;;;;2621924;46;20027;31
2023/11/05 11:45:31;;;;;;;4.70;1.60;;;13.30;73.80;;;;;;2603199;54;20034;31
2023/11/05 11:48:07;;;;;;;3.72;1.00;;;13.30;78.70;;;;;;2603250;54;20033;31
2023/11/05 11:50:51;;;;;;;;;;;13.30;76.20;;;;;;2603445;54;21017;31
2023/11/05 11:53:33;;;;;;;2.80;0.80;;;13.30;76.40;;;;;;2603204;54;20783;31
2023/11/05 11:56:09;;;;;;;2.50;1.30;;;13.30;73.50;;;;;;2603434;54;20585;31
2023/11/05 11:58:44;;;;;;;2.85;0.75;;;13.40;76.30;;;;;;2603431;54;20060;31
2023/11/05 12:01:18;;;;;;;3.55;1.30;;;13.40;73.90;;;;;;2603245;54;22329;31
2023/11/05 12:03:53;;;;;;;2.63;0.90;;;13.60;72.20;;;;;;2603076;54;20655;31
2023/11/05 12:06:25;;;;;;;4.25;1.02;;;;;;;;;;2605423;54;20888;-83
2023/11/05 12:09:00;;;;;;;1.63;0.82;;;;;;;;;;2633908;46;20072;-83
2023/11/05 12:11:35;;;;;;;3.30;1.00;;;;;;;;;;2605143;54;20081;31
2023/11/05 12:14:13;;;;;;;1.85;0.80;;;13.70;70.90;;;;;;2603491;54;20501;31
2023/11/05 12:16:46;;;;;;;2.00;0.80;;;;;;;;;;2603301;54;20030;31
2023/11/05 12:19:21;;;;;;;2.17;0.70;;;;;;;;;;2603746;54;20550;-83
2023/11/05 12:21:56;;;;;;;4.00;1.00;;;13.70;64.90;;;;;;2609833;46;20027;31
2023/11/05 12:24:34;;;;;;;4.72;1.13;;;13.90;68.30;;;;;;2621797;46;20033;31
2023/11/05 12:27:09;;;;;;;1.45;0.80;;;13.50;67.90;;;;;;2603382;54;20030;31
2023/11/05 12:29:45;;;;;;;1.30;0.90;;;13.50;70.70;;;;;;2603092;54;20937;31
2023/11/05 12:32:36;;;;;;;2.80;1.00;;;13.40;82.90;;;;;;2701850;39;20465;31
2023/11/05 12:35:11;;;;;;;2.23;1.17;;;13.40;71.70;;;;;;2603244;54;20109;31
2023/11/05 12:37:46;;;;;;;2.75;0.77;;;13.40;74.30;;;;;;2603325;54;20046;31
2023/11/05 12:40:23;;;;;;;3.10;1.30;;;13.40;76.60;;;;;;2603052;54;21421;31
2023/11/05 12:42:58;;;;;;;2.08;0.80;;;13.40;77.50;;;;;;2603166;54;20085;31
2023/11/05 12:45:33;;;;;;;3.05;0.75;;;;;;;;;;2621640;46;20045;31
2023/11/05 12:48:08;;;;;;;2.13;0.80;;;13.30;75.50;;;;;;2603317;54;20879;31
2023/11/05 12:50:43;;;;;;;2.73;0.80;;;13.40;79.30;;;;;;2603295;54;20945;31
2023/11/05 12:53:17;;;;;;;3.70;0.82;;;13.30;72.90;;;;;;2622081;46;20847;31
2023/11/05 12:55:58;;;;;;;2.22;1.10;;;13.20;85.10;;;;;;2603217;54;20027;31
2023/11/05 12:58:33;;;;;;;2.10;1.10;;;13.30;81.00;;;;;;2603414;54;20058;31
2023/11/05 13:01:10;;;;;;;2.17;0.80;;;13.20;83.10;;;;;;2773290;31;20565;31
2023/11/05 13:03:42;;;;;;;2.88;1.08;;;;;;;;;;2676172;39;20982;-83
2023/11/05 13:06:17;;;;;;;3.65;1.13;;;13.20;79.10;;;;;;2604871;46;20023;31
2023/11/05 13:08:52;;;;;;;1.65;0.70;;;13.20;79.30;;;;;;2602983;54;20964;31
2023/11/05 13:11:28;;;;;;;2.80;1.05;;;13.10;80.10;;;;;;2603088;54;20940;31
2023/11/05 13:14:02;;;;;;;5.20;1.02;;;13.10;83.10;;;;;;2603050;54;20038;31
2023/11/05 13:16:37;;;;;;;1.33;0.65;;;13.10;83.50;;;;;;2621561;47;20925;31
2023/11/05 13:19:11;;;;;;;2.22;0.80;;;13.10;82.90;;;;;;2603006;54;20896;31
2023/11/05 13:21:46;;;;;;;3.65;1.15;;;13.00;85.70;;;;;;2603166;54;20031;31
2023/11/05 13:24:20;;;;;;;2.40;0.80;;;13.00;85.70;;;;;;2603214;54;20577;31
2023/11/05 13:26:57;;;;;;;2.35;1.20;;;13.00;86.10;;;;;;2602699;54;20410;31
2023/11/05 13:29:31;;;;;;;2.30;1.00;;;13.00;85.20;;;;;;2603075;54;20062;31
2023/11/05 13:32:09;;;;;;;2.40;0.90;;;12.90;86.60;;;;;;2602957;54;20961;31
2023/11/05 13:34:44;;;;;;;3.33;1.03;;;12.90;85.80;;;;;;2602977;54;20035;31
2023/11/05 13:37:19;;;;;;;2.80;0.90;;;12.80;88.30;;;;;;2621264;47;20030;31
2023/11/05 13:39:52;;;;;;;1.48;0.80;;;12.80;88.20;;;;;;2602954;54;20940;31
2023/11/05 13:42:29;;;;;;;2.20;1.00;;;12.80;90.90;;;;;;2602931;54;20042;31
2023/11/05 13:45:04;;;;;;;5.30;0.88;;;12.70;91.60;;;;;;2621447;47;20064;31
2023/11/05 13:47:39;;;;;;;3.50;0.85;;;12.70;92.30;;;;;;2603098;54;20029;31
2023/11/05 13:50:13;;;;;;;3.85;1.20;;;12.70;92.90;;;;;;2621823;47;20112;31
2023/11/05 13:52:47;;;;;;;2.00;1.00;;;12.60;94.00;;;;;;2603918;54;20103;31